sensor_id;sensor_type;location;lat;lon;timestamp;P1;durP1;ratioP1;P2;durP2;ratioP2
81180;SDS011;70650;51.408;7.132;2024-02-04T00:01:18;11.27;;;4.97;;
81180;SDS011;70650;51.408;7.132;2024-02-04T00:03:43;11.07;;;4.90;;
81180;SDS011;70650;51.408;7.132;2024-02-04T00:06:09;9.75;;;4.60;;
81180;SDS011;70650;51.408;7.132;2024-02-04T00:08:34;10.93;;;4.33;;
81180;SDS011;70650;51.408;7.132;2024-02-04T00:10:59;10.53;;;4.67;;
81180;SDS011;70650;51.408;7.132;2024-02-04T00:13:25;9.90;;;4.28;;
81180;SDS011;70650;51.408;7.132;2024-02-04T00:15:51;10.93;;;4.25;;
81180;SDS011;70650;51.408;7.132;2024-02-04T00:18:19;11.32;;;4.32;;
81180;SDS011;70650;51.408;7.132;2024-02-04T00:20:45;10.93;;;4.40;;
81180;SDS011;70650;51.408;7.132;2024-02-04T00:23:10;9.77;;;4.07;;
81180;SDS011;70650;51.408;7.132;2024-02-04T00:25:37;12.95;;;5.05;;
81180;SDS011;70650;51.408;7.132;2024-02-04T00:28:02;12.68;;;4.97;;
81180;SDS011;70650;51.408;7.132;2024-02-04T00:30:28;11.00;;;4.32;;
81180;SDS011;70650;51.408;7.132;2024-02-04T00:32:53;9.15;;;4.05;;
81180;SDS011;70650;51.408;7.132;2024-02-04T00:35:19;8.30;;;3.60;;
81180;SDS011;70650;51.408;7.132;2024-02-04T00:37:44;8.77;;;3.60;;
81180;SDS011;70650;51.408;7.132;2024-02-04T00:40:09;10.10;;;3.70;;
81180;SDS011;70650;51.408;7.132;2024-02-04T00:42:35;7.60;;;2.70;;
81180;SDS011;70650;51.408;7.132;2024-02-04T00:45:01;8.50;;;3.23;;
81180;SDS011;70650;51.408;7.132;2024-02-04T00:47:26;8.57;;;2.60;;
81180;SDS011;70650;51.408;7.132;2024-02-04T00:49:51;6.57;;;3.13;;
81180;SDS011;70650;51.408;7.132;2024-02-04T00:52:16;7.27;;;2.70;;
81180;SDS011;70650;51.408;7.132;2024-02-04T00:54:42;9.17;;;2.80;;
81180;SDS011;70650;51.408;7.132;2024-02-04T00:57:07;5.53;;;1.90;;
81180;SDS011;70650;51.408;7.132;2024-02-04T00:59:33;5.40;;;1.88;;
81180;SDS011;70650;51.408;7.132;2024-02-04T01:01:58;7.10;;;2.42;;
81180;SDS011;70650;51.408;7.132;2024-02-04T01:04:24;5.13;;;1.65;;
81180;SDS011;70650;51.408;7.132;2024-02-04T01:06:49;4.90;;;1.60;;
81180;SDS011;70650;51.408;7.132;2024-02-04T01:09:15;5.97;;;1.70;;
81180;SDS011;70650;51.408;7.132;2024-02-04T01:11:40;5.90;;;1.83;;
81180;SDS011;70650;51.408;7.132;2024-02-04T01:14:05;5.20;;;1.67;;
81180;SDS011;70650;51.408;7.132;2024-02-04T01:16:31;4.83;;;1.40;;
81180;SDS011;70650;51.408;7.132;2024-02-04T01:18:56;4.17;;;1.37;;
81180;SDS011;70650;51.408;7.132;2024-02-04T01:21:21;5.28;;;1.52;;
81180;SDS011;70650;51.408;7.132;2024-02-04T01:23:47;3.63;;;1.20;;
81180;SDS011;70650;51.408;7.132;2024-02-04T01:26:12;5.53;;;1.65;;
81180;SDS011;70650;51.408;7.132;2024-02-04T01:28:37;5.00;;;1.67;;
81180;SDS011;70650;51.408;7.132;2024-02-04T01:31:04;5.47;;;1.60;;
81180;SDS011;70650;51.408;7.132;2024-02-04T01:33:29;6.10;;;1.80;;
81180;SDS011;70650;51.408;7.132;2024-02-04T01:35:55;5.30;;;1.70;;
81180;SDS011;70650;51.408;7.132;2024-02-04T01:38:20;5.95;;;1.85;;
81180;SDS011;70650;51.408;7.132;2024-02-04T01:40:45;5.23;;;1.63;;
81180;SDS011;70650;51.408;7.132;2024-02-04T01:43:11;6.47;;;2.00;;
81180;SDS011;70650;51.408;7.132;2024-02-04T01:45:37;6.57;;;2.00;;
81180;SDS011;70650;51.408;7.132;2024-02-04T01:48:04;6.00;;;1.90;;
81180;SDS011;70650;51.408;7.132;2024-02-04T01:50:30;6.35;;;2.10;;
81180;SDS011;70650;51.408;7.132;2024-02-04T01:52:55;6.47;;;2.15;;
81180;SDS011;70650;51.408;7.132;2024-02-04T01:55:21;5.47;;;1.73;;
81180;SDS011;70650;51.408;7.132;2024-02-04T01:57:48;5.25;;;1.63;;
81180;SDS011;70650;51.408;7.132;2024-02-04T02:00:15;7.22;;;2.45;;
81180;SDS011;70650;51.408;7.132;2024-02-04T02:02:40;6.95;;;2.15;;
81180;SDS011;70650;51.408;7.132;2024-02-04T02:05:06;6.55;;;2.33;;
81180;SDS011;70650;51.408;7.132;2024-02-04T02:07:33;7.75;;;3.13;;
81180;SDS011;70650;51.408;7.132;2024-02-04T02:09:58;7.90;;;2.97;;
81180;SDS011;70650;51.408;7.132;2024-02-04T02:12:25;7.03;;;2.80;;
81180;SDS011;70650;51.408;7.132;2024-02-04T02:15:07;7.78;;;3.08;;
81180;SDS011;70650;51.408;7.132;2024-02-04T02:17:55;9.13;;;3.47;;
81180;SDS011;70650;51.408;7.132;2024-02-04T02:20:28;10.25;;;4.32;;
81180;SDS011;70650;51.408;7.132;2024-02-04T02:25:36;12.07;;;4.72;;
81180;SDS011;70650;51.408;7.132;2024-02-04T02:28:03;11.82;;;4.90;;
81180;SDS011;70650;51.408;7.132;2024-02-04T02:30:28;12.38;;;5.22;;
81180;SDS011;70650;51.408;7.132;2024-02-04T02:32:54;13.03;;;4.90;;
81180;SDS011;70650;51.408;7.132;2024-02-04T02:35:19;13.75;;;5.82;;
81180;SDS011;70650;51.408;7.132;2024-02-04T02:43:12;11.40;;;5.05;;
81180;SDS011;70650;51.408;7.132;2024-02-04T02:45:42;11.77;;;4.93;;
81180;SDS011;70650;51.408;7.132;2024-02-04T02:48:08;12.65;;;5.35;;
81180;SDS011;70650;51.408;7.132;2024-02-04T02:50:35;14.50;;;5.90;;
81180;SDS011;70650;51.408;7.132;2024-02-04T02:53:01;14.27;;;6.18;;
81180;SDS011;70650;51.408;7.132;2024-02-04T02:55:26;14.60;;;5.95;;
81180;SDS011;70650;51.408;7.132;2024-02-04T02:57:51;14.02;;;5.70;;
81180;SDS011;70650;51.408;7.132;2024-02-04T03:00:17;15.93;;;6.80;;
81180;SDS011;70650;51.408;7.132;2024-02-04T03:02:43;17.83;;;7.85;;
81180;SDS011;70650;51.408;7.132;2024-02-04T03:05:09;16.65;;;7.88;;
81180;SDS011;70650;51.408;7.132;2024-02-04T03:07:34;18.05;;;8.00;;
81180;SDS011;70650;51.408;7.132;2024-02-04T03:10:00;20.10;;;9.32;;
81180;SDS011;70650;51.408;7.132;2024-02-04T03:12:25;20.80;;;10.07;;
81180;SDS011;70650;51.408;7.132;2024-02-04T03:14:50;23.10;;;9.43;;
81180;SDS011;70650;51.408;7.132;2024-02-04T03:17:17;22.30;;;9.07;;
81180;SDS011;70650;51.408;7.132;2024-02-04T03:19:46;22.63;;;10.10;;
81180;SDS011;70650;51.408;7.132;2024-02-04T03:22:12;26.95;;;10.65;;
81180;SDS011;70650;51.408;7.132;2024-02-04T03:24:38;23.73;;;10.43;;
81180;SDS011;70650;51.408;7.132;2024-02-04T03:27:03;23.92;;;11.10;;
81180;SDS011;70650;51.408;7.132;2024-02-04T03:29:28;24.90;;;12.98;;
81180;SDS011;70650;51.408;7.132;2024-02-04T03:31:55;22.73;;;10.93;;
81180;SDS011;70650;51.408;7.132;2024-02-04T03:34:21;24.33;;;11.43;;
81180;SDS011;70650;51.408;7.132;2024-02-04T03:36:46;25.48;;;11.27;;
81180;SDS011;70650;51.408;7.132;2024-02-04T03:39:11;22.87;;;10.03;;
81180;SDS011;70650;51.408;7.132;2024-02-04T03:41:36;22.53;;;10.73;;
81180;SDS011;70650;51.408;7.132;2024-02-04T03:44:02;25.20;;;12.30;;
81180;SDS011;70650;51.408;7.132;2024-02-04T03:46:28;20.92;;;10.35;;
81180;SDS011;70650;51.408;7.132;2024-02-04T03:48:53;21.07;;;9.57;;
81180;SDS011;70650;51.408;7.132;2024-02-04T03:51:18;24.85;;;10.85;;
81180;SDS011;70650;51.408;7.132;2024-02-04T03:53:44;26.90;;;11.45;;
81180;SDS011;70650;51.408;7.132;2024-02-04T03:56:10;24.48;;;11.95;;
81180;SDS011;70650;51.408;7.132;2024-02-04T03:58:36;23.60;;;10.75;;
81180;SDS011;70650;51.408;7.132;2024-02-04T04:01:02;23.30;;;10.43;;
81180;SDS011;70650;51.408;7.132;2024-02-04T04:03:27;22.95;;;10.00;;
81180;SDS011;70650;51.408;7.132;2024-02-04T04:05:53;21.30;;;9.82;;
81180;SDS011;70650;51.408;7.132;2024-02-04T04:08:18;20.73;;;8.35;;
81180;SDS011;70650;51.408;7.132;2024-02-04T04:10:45;19.65;;;9.23;;
81180;SDS011;70650;51.408;7.132;2024-02-04T04:13:11;22.38;;;9.23;;
81180;SDS011;70650;51.408;7.132;2024-02-04T04:15:37;19.90;;;8.40;;
81180;SDS011;70650;51.408;7.132;2024-02-04T04:18:02;17.65;;;7.05;;
81180;SDS011;70650;51.408;7.132;2024-02-04T04:20:28;19.20;;;7.50;;
81180;SDS011;70650;51.408;7.132;2024-02-04T04:22:53;15.63;;;5.82;;
81180;SDS011;70650;51.408;7.132;2024-02-04T04:25:18;11.93;;;5.13;;
81180;SDS011;70650;51.408;7.132;2024-02-04T04:27:45;14.52;;;5.50;;
81180;SDS011;70650;51.408;7.132;2024-02-04T04:30:12;13.13;;;5.20;;
81180;SDS011;70650;51.408;7.132;2024-02-04T04:32:37;12.32;;;4.68;;
81180;SDS011;70650;51.408;7.132;2024-02-04T04:35:02;15.70;;;5.25;;
81180;SDS011;70650;51.408;7.132;2024-02-04T04:37:28;15.13;;;5.63;;
81180;SDS011;70650;51.408;7.132;2024-02-04T04:39:54;17.83;;;6.90;;
81180;SDS011;70650;51.408;7.132;2024-02-04T04:42:19;15.02;;;6.88;;
81180;SDS011;70650;51.408;7.132;2024-02-04T04:44:44;17.33;;;8.10;;
81180;SDS011;70650;51.408;7.132;2024-02-04T04:47:10;19.93;;;7.90;;
81180;SDS011;70650;51.408;7.132;2024-02-04T04:49:35;18.17;;;7.93;;
81180;SDS011;70650;51.408;7.132;2024-02-04T04:52:00;20.53;;;8.57;;
81180;SDS011;70650;51.408;7.132;2024-02-04T04:54:27;21.48;;;9.13;;
81180;SDS011;70650;51.408;7.132;2024-02-04T04:56:52;21.05;;;9.15;;
81180;SDS011;70650;51.408;7.132;2024-02-04T04:59:18;20.77;;;8.93;;
81180;SDS011;70650;51.408;7.132;2024-02-04T05:01:47;23.93;;;10.13;;
81180;SDS011;70650;51.408;7.132;2024-02-04T05:04:15;25.15;;;10.27;;
81180;SDS011;70650;51.408;7.132;2024-02-04T05:06:43;23.40;;;10.35;;
81180;SDS011;70650;51.408;7.132;2024-02-04T05:09:08;23.97;;;10.60;;
81180;SDS011;70650;51.408;7.132;2024-02-04T05:11:34;22.13;;;9.20;;
81180;SDS011;70650;51.408;7.132;2024-02-04T05:13:59;18.35;;;9.35;;
81180;SDS011;70650;51.408;7.132;2024-02-04T05:16:24;19.77;;;9.48;;
81180;SDS011;70650;51.408;7.132;2024-02-04T05:18:50;19.07;;;9.43;;
81180;SDS011;70650;51.408;7.132;2024-02-04T05:21:15;18.58;;;9.35;;
81180;SDS011;70650;51.408;7.132;2024-02-04T05:23:40;23.02;;;10.23;;
81180;SDS011;70650;51.408;7.132;2024-02-04T05:26:06;18.42;;;8.32;;
81180;SDS011;70650;51.408;7.132;2024-02-04T05:28:32;17.45;;;8.50;;
81180;SDS011;70650;51.408;7.132;2024-02-04T05:30:57;18.15;;;8.85;;
81180;SDS011;70650;51.408;7.132;2024-02-04T05:33:23;19.75;;;8.70;;
81180;SDS011;70650;51.408;7.132;2024-02-04T05:35:48;20.37;;;9.47;;
81180;SDS011;70650;51.408;7.132;2024-02-04T05:38:13;21.10;;;9.50;;
81180;SDS011;70650;51.408;7.132;2024-02-04T05:40:39;19.83;;;8.80;;
81180;SDS011;70650;51.408;7.132;2024-02-04T05:43:04;18.90;;;9.23;;
81180;SDS011;70650;51.408;7.132;2024-02-04T05:45:32;20.65;;;9.43;;
81180;SDS011;70650;51.408;7.132;2024-02-04T05:47:58;21.40;;;10.52;;
81180;SDS011;70650;51.408;7.132;2024-02-04T05:50:23;26.02;;;10.43;;
81180;SDS011;70650;51.408;7.132;2024-02-04T05:52:49;21.93;;;9.60;;
81180;SDS011;70650;51.408;7.132;2024-02-04T05:55:14;26.83;;;10.80;;
81180;SDS011;70650;51.408;7.132;2024-02-04T05:57:40;23.55;;;10.05;;
81180;SDS011;70650;51.408;7.132;2024-02-04T06:00:06;23.45;;;9.20;;
81180;SDS011;70650;51.408;7.132;2024-02-04T06:02:35;28.35;;;9.60;;
81180;SDS011;70650;51.408;7.132;2024-02-04T06:05:01;20.80;;;9.63;;
81180;SDS011;70650;51.408;7.132;2024-02-04T06:07:26;24.10;;;9.70;;
81180;SDS011;70650;51.408;7.132;2024-02-04T06:09:52;22.50;;;10.00;;
81180;SDS011;70650;51.408;7.132;2024-02-04T06:12:17;20.07;;;9.30;;
81180;SDS011;70650;51.408;7.132;2024-02-04T06:14:42;22.40;;;9.33;;
81180;SDS011;70650;51.408;7.132;2024-02-04T06:17:07;25.07;;;10.13;;
81180;SDS011;70650;51.408;7.132;2024-02-04T06:19:34;21.48;;;8.73;;
81180;SDS011;70650;51.408;7.132;2024-02-04T06:22:00;22.05;;;9.30;;
81180;SDS011;70650;51.408;7.132;2024-02-04T06:24:25;25.50;;;9.80;;
81180;SDS011;70650;51.408;7.132;2024-02-04T06:26:50;24.83;;;10.20;;
81180;SDS011;70650;51.408;7.132;2024-02-04T06:29:16;23.63;;;9.90;;
81180;SDS011;70650;51.408;7.132;2024-02-04T06:31:43;24.33;;;9.60;;
81180;SDS011;70650;51.408;7.132;2024-02-04T06:34:10;25.02;;;9.57;;
81180;SDS011;70650;51.408;7.132;2024-02-04T06:36:35;23.40;;;9.17;;
81180;SDS011;70650;51.408;7.132;2024-02-04T06:39:00;25.73;;;10.93;;
81180;SDS011;70650;51.408;7.132;2024-02-04T06:41:26;23.33;;;9.97;;
81180;SDS011;70650;51.408;7.132;2024-02-04T06:43:53;27.80;;;10.00;;
81180;SDS011;70650;51.408;7.132;2024-02-04T06:46:27;25.87;;;10.43;;
81180;SDS011;70650;51.408;7.132;2024-02-04T06:48:53;26.15;;;10.70;;
81180;SDS011;70650;51.408;7.132;2024-02-04T06:51:19;24.50;;;9.60;;
81180;SDS011;70650;51.408;7.132;2024-02-04T06:53:45;25.13;;;10.38;;
81180;SDS011;70650;51.408;7.132;2024-02-04T06:56:10;23.83;;;9.52;;
81180;SDS011;70650;51.408;7.132;2024-02-04T06:58:40;18.73;;;7.40;;
81180;SDS011;70650;51.408;7.132;2024-02-04T07:01:06;19.17;;;7.90;;
81180;SDS011;70650;51.408;7.132;2024-02-04T07:03:31;19.70;;;7.57;;
81180;SDS011;70650;51.408;7.132;2024-02-04T07:05:57;17.75;;;7.25;;
81180;SDS011;70650;51.408;7.132;2024-02-04T07:08:26;20.83;;;8.07;;
81180;SDS011;70650;51.408;7.132;2024-02-04T07:10:51;18.92;;;8.43;;
81180;SDS011;70650;51.408;7.132;2024-02-04T07:13:17;22.25;;;8.57;;
81180;SDS011;70650;51.408;7.132;2024-02-04T07:15:44;20.23;;;7.72;;
81180;SDS011;70650;51.408;7.132;2024-02-04T07:18:09;17.48;;;7.63;;
81180;SDS011;70650;51.408;7.132;2024-02-04T07:20:35;15.93;;;8.18;;
81180;SDS011;70650;51.408;7.132;2024-02-04T07:23:00;17.80;;;7.25;;
81180;SDS011;70650;51.408;7.132;2024-02-04T07:25:27;16.63;;;6.95;;
81180;SDS011;70650;51.408;7.132;2024-02-04T07:27:52;14.73;;;6.00;;
81180;SDS011;70650;51.408;7.132;2024-02-04T07:30:18;16.27;;;6.88;;
81180;SDS011;70650;51.408;7.132;2024-02-04T07:32:45;16.75;;;6.03;;
81180;SDS011;70650;51.408;7.132;2024-02-04T07:35:11;15.02;;;6.57;;
81180;SDS011;70650;51.408;7.132;2024-02-04T07:37:37;15.15;;;5.93;;
81180;SDS011;70650;51.408;7.132;2024-02-04T07:40:03;14.95;;;6.10;;
81180;SDS011;70650;51.408;7.132;2024-02-04T07:42:30;16.90;;;6.25;;
81180;SDS011;70650;51.408;7.132;2024-02-04T07:44:55;18.20;;;6.38;;
81180;SDS011;70650;51.408;7.132;2024-02-04T07:47:21;13.93;;;6.27;;
81180;SDS011;70650;51.408;7.132;2024-02-04T07:49:47;17.17;;;6.13;;
81180;SDS011;70650;51.408;7.132;2024-02-04T07:52:15;15.63;;;6.30;;
81180;SDS011;70650;51.408;7.132;2024-02-04T07:54:40;15.05;;;5.93;;
81180;SDS011;70650;51.408;7.132;2024-02-04T07:57:06;15.82;;;6.72;;
81180;SDS011;70650;51.408;7.132;2024-02-04T07:59:32;14.68;;;6.18;;
81180;SDS011;70650;51.408;7.132;2024-02-04T08:01:58;14.17;;;5.80;;
81180;SDS011;70650;51.408;7.132;2024-02-04T08:04:23;14.05;;;5.15;;
81180;SDS011;70650;51.408;7.132;2024-02-04T08:06:48;13.67;;;5.63;;
81180;SDS011;70650;51.408;7.132;2024-02-04T08:09:13;14.53;;;5.43;;
81180;SDS011;70650;51.408;7.132;2024-02-04T08:11:39;14.30;;;4.65;;
81180;SDS011;70650;51.408;7.132;2024-02-04T08:14:05;10.35;;;4.18;;
81180;SDS011;70650;51.408;7.132;2024-02-04T08:16:31;10.10;;;4.45;;
81180;SDS011;70650;51.408;7.132;2024-02-04T08:18:57;9.75;;;4.22;;
81180;SDS011;70650;51.408;7.132;2024-02-04T08:21:22;14.23;;;6.85;;
81180;SDS011;70650;51.408;7.132;2024-02-04T08:23:48;9.10;;;3.37;;
81180;SDS011;70650;51.408;7.132;2024-02-04T08:26:13;7.93;;;3.30;;
81180;SDS011;70650;51.408;7.132;2024-02-04T08:28:39;7.13;;;2.50;;
81180;SDS011;70650;51.408;7.132;2024-02-04T08:31:04;6.50;;;2.00;;
81180;SDS011;70650;51.408;7.132;2024-02-04T08:33:29;5.88;;;2.30;;
81180;SDS011;70650;51.408;7.132;2024-02-04T08:35:55;5.77;;;2.00;;
81180;SDS011;70650;51.408;7.132;2024-02-04T08:38:20;7.03;;;2.27;;
81180;SDS011;70650;51.408;7.132;2024-02-04T08:40:45;6.83;;;2.57;;
81180;SDS011;70650;51.408;7.132;2024-02-04T08:43:11;7.97;;;2.58;;
81180;SDS011;70650;51.408;7.132;2024-02-04T08:45:37;8.63;;;3.20;;
81180;SDS011;70650;51.408;7.132;2024-02-04T08:48:02;8.00;;;3.10;;
81180;SDS011;70650;51.408;7.132;2024-02-04T08:50:28;8.88;;;3.50;;
81180;SDS011;70650;51.408;7.132;2024-02-04T08:52:54;9.98;;;3.78;;
81180;SDS011;70650;51.408;7.132;2024-02-04T08:55:19;11.25;;;4.00;;
81180;SDS011;70650;51.408;7.132;2024-02-04T08:57:45;8.33;;;2.90;;
81180;SDS011;70650;51.408;7.132;2024-02-04T09:00:10;8.00;;;3.20;;
81180;SDS011;70650;51.408;7.132;2024-02-04T09:02:37;7.88;;;2.92;;
81180;SDS011;70650;51.408;7.132;2024-02-04T09:05:03;8.45;;;3.53;;
81180;SDS011;70650;51.408;7.132;2024-02-04T09:07:28;10.82;;;4.60;;
81180;SDS011;70650;51.408;7.132;2024-02-04T09:09:55;11.65;;;4.97;;
81180;SDS011;70650;51.408;7.132;2024-02-04T09:12:20;12.80;;;5.30;;
81180;SDS011;70650;51.408;7.132;2024-02-04T09:14:45;12.27;;;4.83;;
81180;SDS011;70650;51.408;7.132;2024-02-04T09:17:11;14.00;;;5.33;;
81180;SDS011;70650;51.408;7.132;2024-02-04T09:19:38;14.80;;;5.63;;
81180;SDS011;70650;51.408;7.132;2024-02-04T09:22:03;12.57;;;5.28;;
81180;SDS011;70650;51.408;7.132;2024-02-04T09:24:29;14.33;;;4.90;;
81180;SDS011;70650;51.408;7.132;2024-02-04T09:26:54;12.75;;;5.47;;
81180;SDS011;70650;51.408;7.132;2024-02-04T09:29:20;12.10;;;4.73;;
81180;SDS011;70650;51.408;7.132;2024-02-04T09:31:45;13.93;;;5.05;;
81180;SDS011;70650;51.408;7.132;2024-02-04T09:34:11;13.57;;;5.10;;
81180;SDS011;70650;51.408;7.132;2024-02-04T09:36:36;12.23;;;4.93;;
81180;SDS011;70650;51.408;7.132;2024-02-04T09:39:01;13.93;;;5.93;;
81180;SDS011;70650;51.408;7.132;2024-02-04T09:41:26;12.93;;;5.43;;
81180;SDS011;70650;51.408;7.132;2024-02-04T09:43:52;10.65;;;4.97;;
81180;SDS011;70650;51.408;7.132;2024-02-04T09:46:18;11.10;;;4.90;;
81180;SDS011;70650;51.408;7.132;2024-02-04T09:48:47;11.45;;;5.00;;
81180;SDS011;70650;51.408;7.132;2024-02-04T09:51:17;12.68;;;5.32;;
81180;SDS011;70650;51.408;7.132;2024-02-04T09:53:43;13.93;;;5.20;;
81180;SDS011;70650;51.408;7.132;2024-02-04T09:56:09;11.40;;;4.65;;
81180;SDS011;70650;51.408;7.132;2024-02-04T09:58:36;14.13;;;4.70;;
81180;SDS011;70650;51.408;7.132;2024-02-04T10:01:02;11.63;;;4.10;;
81180;SDS011;70650;51.408;7.132;2024-02-04T10:03:29;10.55;;;3.95;;
81180;SDS011;70650;51.408;7.132;2024-02-04T10:05:55;10.52;;;4.13;;
81180;SDS011;70650;51.408;7.132;2024-02-04T10:08:20;10.20;;;3.40;;
81180;SDS011;70650;51.408;7.132;2024-02-04T10:10:46;10.07;;;4.05;;
81180;SDS011;70650;51.408;7.132;2024-02-04T10:13:12;10.57;;;4.20;;
81180;SDS011;70650;51.408;7.132;2024-02-04T10:15:37;12.70;;;4.30;;
81180;SDS011;70650;51.408;7.132;2024-02-04T10:18:03;11.97;;;4.43;;
81180;SDS011;70650;51.408;7.132;2024-02-04T10:20:30;10.02;;;4.07;;
81180;SDS011;70650;51.408;7.132;2024-02-04T10:22:55;11.45;;;4.50;;
81180;SDS011;70650;51.408;7.132;2024-02-04T10:25:21;8.65;;;3.50;;
81180;SDS011;70650;51.408;7.132;2024-02-04T10:27:47;9.25;;;3.55;;
81180;SDS011;70650;51.408;7.132;2024-02-04T10:30:12;11.57;;;4.68;;
81180;SDS011;70650;51.408;7.132;2024-02-04T10:32:39;11.05;;;4.13;;
81180;SDS011;70650;51.408;7.132;2024-02-04T10:35:04;11.93;;;5.00;;
81180;SDS011;70650;51.408;7.132;2024-02-04T10:37:30;11.77;;;5.57;;
81180;SDS011;70650;51.408;7.132;2024-02-04T10:39:55;12.93;;;5.23;;
81180;SDS011;70650;51.408;7.132;2024-02-04T10:42:23;12.40;;;5.35;;
81180;SDS011;70650;51.408;7.132;2024-02-04T10:44:51;9.90;;;4.65;;
81180;SDS011;70650;51.408;7.132;2024-02-04T10:47:21;13.27;;;5.70;;
81180;SDS011;70650;51.408;7.132;2024-02-04T10:49:51;13.10;;;5.32;;
81180;SDS011;70650;51.408;7.132;2024-02-04T10:52:20;12.93;;;5.60;;
81180;SDS011;70650;51.408;7.132;2024-02-04T10:54:48;12.35;;;5.18;;
81180;SDS011;70650;51.408;7.132;2024-02-04T10:57:15;13.60;;;4.90;;
81180;SDS011;70650;51.408;7.132;2024-02-04T10:59:46;11.88;;;5.32;;
81180;SDS011;70650;51.408;7.132;2024-02-04T11:02:13;11.18;;;5.20;;
81180;SDS011;70650;51.408;7.132;2024-02-04T11:04:40;11.65;;;5.15;;
81180;SDS011;70650;51.408;7.132;2024-02-04T11:07:08;12.50;;;5.32;;
81180;SDS011;70650;51.408;7.132;2024-02-04T11:09:39;12.80;;;5.00;;
81180;SDS011;70650;51.408;7.132;2024-02-04T11:12:06;12.02;;;5.15;;
81180;SDS011;70650;51.408;7.132;2024-02-04T11:14:37;9.95;;;4.35;;
81180;SDS011;70650;51.408;7.132;2024-02-04T11:26:26;8.68;;;3.13;;
81180;SDS011;70650;51.408;7.132;2024-02-04T11:28:53;8.48;;;3.50;;
81180;SDS011;70650;51.408;7.132;2024-02-04T11:31:20;9.07;;;3.70;;
81180;SDS011;70650;51.408;7.132;2024-02-04T11:33:46;10.00;;;3.95;;
81180;SDS011;70650;51.408;7.132;2024-02-04T11:36:15;8.05;;;3.47;;
81180;SDS011;70650;51.408;7.132;2024-02-04T11:38:43;8.65;;;3.55;;
81180;SDS011;70650;51.408;7.132;2024-02-04T11:41:08;9.32;;;3.90;;
81180;SDS011;70650;51.408;7.132;2024-02-04T11:43:34;9.45;;;3.97;;
81180;SDS011;70650;51.408;7.132;2024-02-04T11:46:03;9.38;;;4.32;;
81180;SDS011;70650;51.408;7.132;2024-02-04T11:48:29;8.73;;;3.85;;
81180;SDS011;70650;51.408;7.132;2024-02-04T11:50:57;9.43;;;3.70;;
81180;SDS011;70650;51.408;7.132;2024-02-04T11:53:27;9.30;;;3.45;;
81180;SDS011;70650;51.408;7.132;2024-02-04T11:55:56;7.95;;;2.65;;
81180;SDS011;70650;51.408;7.132;2024-02-04T11:58:24;8.90;;;3.20;;
81180;SDS011;70650;51.408;7.132;2024-02-04T12:00:51;8.15;;;2.97;;
81180;SDS011;70650;51.408;7.132;2024-02-04T12:03:27;8.60;;;3.03;;
81180;SDS011;70650;51.408;7.132;2024-02-04T12:05:57;8.85;;;2.90;;
81180;SDS011;70650;51.408;7.132;2024-02-04T12:08:24;7.55;;;2.83;;
81180;SDS011;70650;51.408;7.132;2024-02-04T12:10:52;7.60;;;2.60;;
81180;SDS011;70650;51.408;7.132;2024-02-04T12:13:18;8.27;;;3.13;;
81180;SDS011;70650;51.408;7.132;2024-02-04T12:15:44;8.45;;;3.20;;
81180;SDS011;70650;51.408;7.132;2024-02-04T12:18:13;11.82;;;3.72;;
81180;SDS011;70650;51.408;7.132;2024-02-04T12:20:41;8.60;;;3.15;;
81180;SDS011;70650;51.408;7.132;2024-02-04T12:23:07;9.07;;;3.40;;
81180;SDS011;70650;51.408;7.132;2024-02-04T12:25:32;9.45;;;3.40;;
81180;SDS011;70650;51.408;7.132;2024-02-04T12:27:59;8.68;;;3.50;;
81180;SDS011;70650;51.408;7.132;2024-02-04T12:30:26;10.82;;;3.70;;
81180;SDS011;70650;51.408;7.132;2024-02-04T12:32:55;8.82;;;3.33;;
81180;SDS011;70650;51.408;7.132;2024-02-04T12:35:29;8.80;;;3.28;;
81180;SDS011;70650;51.408;7.132;2024-02-04T12:37:55;9.98;;;3.50;;
81180;SDS011;70650;51.408;7.132;2024-02-04T12:40:22;8.20;;;3.00;;
81180;SDS011;70650;51.408;7.132;2024-02-04T12:45:23;8.57;;;3.05;;
81180;SDS011;70650;51.408;7.132;2024-02-04T12:47:50;9.48;;;3.95;;
81180;SDS011;70650;51.408;7.132;2024-02-04T12:50:17;8.02;;;3.28;;
81180;SDS011;70650;51.408;7.132;2024-02-04T12:52:44;8.95;;;3.10;;
81180;SDS011;70650;51.408;7.132;2024-02-04T12:55:19;8.48;;;3.70;;
81180;SDS011;70650;51.408;7.132;2024-02-04T12:57:48;9.35;;;3.25;;
81180;SDS011;70650;51.408;7.132;2024-02-04T13:00:18;9.95;;;3.72;;
81180;SDS011;70650;51.408;7.132;2024-02-04T13:02:44;7.85;;;3.20;;
81180;SDS011;70650;51.408;7.132;2024-02-04T13:05:09;9.35;;;2.90;;
81180;SDS011;70650;51.408;7.132;2024-02-04T13:07:34;10.20;;;3.40;;
81180;SDS011;70650;51.408;7.132;2024-02-04T13:10:00;8.38;;;3.42;;
81180;SDS011;70650;51.408;7.132;2024-02-04T13:12:26;9.45;;;3.35;;
81180;SDS011;70650;51.408;7.132;2024-02-04T13:14:51;8.25;;;3.22;;
81180;SDS011;70650;51.408;7.132;2024-02-04T13:17:18;7.95;;;3.47;;
81180;SDS011;70650;51.408;7.132;2024-02-04T13:19:43;11.30;;;4.07;;
81180;SDS011;70650;51.408;7.132;2024-02-04T13:22:09;8.30;;;3.47;;
81180;SDS011;70650;51.408;7.132;2024-02-04T13:24:35;7.55;;;2.92;;
81180;SDS011;70650;51.408;7.132;2024-02-04T13:27:00;9.18;;;3.60;;
81180;SDS011;70650;51.408;7.132;2024-02-04T13:29:28;6.95;;;2.83;;
81180;SDS011;70650;51.408;7.132;2024-02-04T13:31:53;8.70;;;3.40;;
81180;SDS011;70650;51.408;7.132;2024-02-04T13:34:19;7.85;;;3.35;;
81180;SDS011;70650;51.408;7.132;2024-02-04T13:36:45;9.25;;;3.40;;
81180;SDS011;70650;51.408;7.132;2024-02-04T13:39:11;11.20;;;3.65;;
81180;SDS011;70650;51.408;7.132;2024-02-04T13:41:38;7.60;;;3.17;;
81180;SDS011;70650;51.408;7.132;2024-02-04T13:44:06;9.48;;;3.38;;
81180;SDS011;70650;51.408;7.132;2024-02-04T13:46:32;9.07;;;4.00;;
81180;SDS011;70650;51.408;7.132;2024-02-04T13:48:57;9.40;;;3.58;;
81180;SDS011;70650;51.408;7.132;2024-02-04T13:51:23;12.40;;;5.13;;
81180;SDS011;70650;51.408;7.132;2024-02-04T13:53:48;11.48;;;4.93;;
81180;SDS011;70650;51.408;7.132;2024-02-04T13:56:13;12.67;;;4.90;;
81180;SDS011;70650;51.408;7.132;2024-02-04T13:58:39;12.97;;;6.47;;
81180;SDS011;70650;51.408;7.132;2024-02-04T14:01:04;13.67;;;6.20;;
81180;SDS011;70650;51.408;7.132;2024-02-04T14:03:29;12.63;;;6.72;;
81180;SDS011;70650;51.408;7.132;2024-02-04T14:05:55;11.98;;;5.97;;
81180;SDS011;70650;51.408;7.132;2024-02-04T14:08:20;13.45;;;6.68;;
81180;SDS011;70650;51.408;7.132;2024-02-04T14:10:46;11.13;;;6.03;;
81180;SDS011;70650;51.408;7.132;2024-02-04T14:13:12;11.98;;;6.53;;
81180;SDS011;70650;51.408;7.132;2024-02-04T14:15:47;13.35;;;6.45;;
81180;SDS011;70650;51.408;7.132;2024-02-04T14:18:12;14.33;;;6.17;;
81180;SDS011;70650;51.408;7.132;2024-02-04T14:20:37;15.60;;;6.85;;
81180;SDS011;70650;51.408;7.132;2024-02-04T14:23:03;17.73;;;8.37;;
81180;SDS011;70650;51.408;7.132;2024-02-04T14:25:28;15.90;;;8.32;;
81180;SDS011;70650;51.408;7.132;2024-02-04T14:27:53;18.53;;;7.97;;
81180;SDS011;70650;51.408;7.132;2024-02-04T14:30:19;19.65;;;8.68;;
81180;SDS011;70650;51.408;7.132;2024-02-04T14:32:44;14.13;;;7.13;;
81180;SDS011;70650;51.408;7.132;2024-02-04T14:35:10;13.85;;;5.90;;
81180;SDS011;70650;51.408;7.132;2024-02-04T14:37:35;11.23;;;5.17;;
81180;SDS011;70650;51.408;7.132;2024-02-04T14:40:02;11.25;;;5.38;;
81180;SDS011;70650;51.408;7.132;2024-02-04T14:42:29;10.93;;;4.70;;
81180;SDS011;70650;51.408;7.132;2024-02-04T14:44:54;9.15;;;4.43;;
81180;SDS011;70650;51.408;7.132;2024-02-04T14:47:20;8.90;;;4.20;;
81180;SDS011;70650;51.408;7.132;2024-02-04T14:49:45;10.40;;;4.00;;
81180;SDS011;70650;51.408;7.132;2024-02-04T14:52:10;10.48;;;3.80;;